sensor_id;sensor_type;location;lat;lon;timestamp;P1;durP1;ratioP1;P2;durP2;ratioP2
3997;SDS011;61314;53.444;9.902;2022-12-18T00:01:44;28.50;;;15.65;;
3997;SDS011;61314;53.444;9.902;2022-12-18T00:04:15;21.48;;;13.38;;
3997;SDS011;61314;53.444;9.902;2022-12-18T00:06:45;25.50;;;14.52;;
3997;SDS011;61314;53.444;9.902;2022-12-18T00:09:13;25.42;;;13.25;;
3997;SDS011;61314;53.444;9.902;2022-12-18T00:11:40;17.50;;;11.45;;
3997;SDS011;61314;53.444;9.902;2022-12-18T00:14:08;27.13;;;13.50;;
3997;SDS011;61314;53.444;9.902;2022-12-18T00:16:36;23.23;;;13.10;;
3997;SDS011;61314;53.444;9.902;2022-12-18T00:19:03;22.05;;;12.75;;
3997;SDS011;61314;53.444;9.902;2022-12-18T00:21:31;33.85;;;13.75;;
3997;SDS011;61314;53.444;9.902;2022-12-18T00:23:59;21.13;;;12.30;;
3997;SDS011;61314;53.444;9.902;2022-12-18T00:26:29;20.23;;;12.10;;
3997;SDS011;61314;53.444;9.902;2022-12-18T00:29:04;25.33;;;12.10;;
3997;SDS011;61314;53.444;9.902;2022-12-18T00:31:31;19.30;;;12.20;;
3997;SDS011;61314;53.444;9.902;2022-12-18T00:33:58;24.17;;;12.32;;
3997;SDS011;61314;53.444;9.902;2022-12-18T00:36:27;22.80;;;11.70;;
3997;SDS011;61314;53.444;9.902;2022-12-18T00:38:54;20.67;;;11.63;;
3997;SDS011;61314;53.444;9.902;2022-12-18T00:41:22;23.52;;;12.27;;
3997;SDS011;61314;53.444;9.902;2022-12-18T00:44:09;20.83;;;12.05;;
3997;SDS011;61314;53.444;9.902;2022-12-18T00:46:36;19.92;;;10.95;;
3997;SDS011;61314;53.444;9.902;2022-12-18T00:49:03;19.65;;;12.00;;
3997;SDS011;61314;53.444;9.902;2022-12-18T00:51:31;28.27;;;13.50;;
3997;SDS011;61314;53.444;9.902;2022-12-18T00:53:58;24.33;;;13.25;;
3997;SDS011;61314;53.444;9.902;2022-12-18T00:56:25;25.23;;;13.40;;
3997;SDS011;61314;53.444;9.902;2022-12-18T00:58:52;20.30;;;12.10;;
3997;SDS011;61314;53.444;9.902;2022-12-18T01:01:19;19.65;;;12.23;;
3997;SDS011;61314;53.444;9.902;2022-12-18T01:03:46;20.08;;;11.70;;
3997;SDS011;61314;53.444;9.902;2022-12-18T01:06:14;25.08;;;13.60;;
3997;SDS011;61314;53.444;9.902;2022-12-18T01:08:42;20.60;;;12.57;;
3997;SDS011;61314;53.444;9.902;2022-12-18T01:11:10;18.77;;;11.68;;
3997;SDS011;61314;53.444;9.902;2022-12-18T01:13:38;23.88;;;11.52;;
3997;SDS011;61314;53.444;9.902;2022-12-18T01:16:05;20.90;;;12.23;;
3997;SDS011;61314;53.444;9.902;2022-12-18T01:18:33;24.42;;;12.93;;
3997;SDS011;61314;53.444;9.902;2022-12-18T01:21:00;24.02;;;12.23;;
3997;SDS011;61314;53.444;9.902;2022-12-18T01:23:27;20.67;;;10.52;;
3997;SDS011;61314;53.444;9.902;2022-12-18T01:25:54;18.38;;;10.98;;
3997;SDS011;61314;53.444;9.902;2022-12-18T01:28:21;19.65;;;11.05;;
3997;SDS011;61314;53.444;9.902;2022-12-18T01:30:48;20.08;;;11.10;;
3997;SDS011;61314;53.444;9.902;2022-12-18T01:33:15;22.40;;;12.00;;
3997;SDS011;61314;53.444;9.902;2022-12-18T01:35:42;20.25;;;11.98;;
3997;SDS011;61314;53.444;9.902;2022-12-18T01:38:09;31.25;;;12.57;;
3997;SDS011;61314;53.444;9.902;2022-12-18T01:40:36;25.40;;;12.02;;
3997;SDS011;61314;53.444;9.902;2022-12-18T01:43:03;23.02;;;11.75;;
3997;SDS011;61314;53.444;9.902;2022-12-18T01:45:31;16.83;;;10.90;;
3997;SDS011;61314;53.444;9.902;2022-12-18T01:48:02;22.02;;;11.65;;
3997;SDS011;61314;53.444;9.902;2022-12-18T01:50:31;22.17;;;12.25;;
3997;SDS011;61314;53.444;9.902;2022-12-18T01:53:17;24.98;;;12.90;;
3997;SDS011;61314;53.444;9.902;2022-12-18T01:55:50;17.95;;;11.20;;
3997;SDS011;61314;53.444;9.902;2022-12-18T01:58:18;21.88;;;10.35;;
3997;SDS011;61314;53.444;9.902;2022-12-18T02:00:46;19.42;;;11.23;;
3997;SDS011;61314;53.444;9.902;2022-12-18T02:03:13;17.10;;;11.00;;
3997;SDS011;61314;53.444;9.902;2022-12-18T02:05:44;21.17;;;11.88;;
3997;SDS011;61314;53.444;9.902;2022-12-18T02:08:16;28.50;;;12.52;;
3997;SDS011;61314;53.444;9.902;2022-12-18T02:10:46;59.33;;;23.40;;
3997;SDS011;61314;53.444;9.902;2022-12-18T02:13:30;92.03;;;35.40;;
3997;SDS011;61314;53.444;9.902;2022-12-18T02:18:41;50.10;;;23.73;;
3997;SDS011;61314;53.444;9.902;2022-12-18T02:26:12;25.92;;;16.05;;
3997;SDS011;61314;53.444;9.902;2022-12-18T02:28:46;22.98;;;14.15;;
3997;SDS011;61314;53.444;9.902;2022-12-18T02:31:16;20.50;;;12.65;;
3997;SDS011;61314;53.444;9.902;2022-12-18T02:33:47;23.30;;;13.45;;
3997;SDS011;61314;53.444;9.902;2022-12-18T02:36:18;25.65;;;12.10;;
3997;SDS011;61314;53.444;9.902;2022-12-18T02:38:47;20.85;;;11.95;;
3997;SDS011;61314;53.444;9.902;2022-12-18T02:41:14;16.73;;;11.73;;
3997;SDS011;61314;53.444;9.902;2022-12-18T02:43:46;22.55;;;13.75;;
3997;SDS011;61314;53.444;9.902;2022-12-18T02:46:32;20.70;;;12.25;;
3997;SDS011;61314;53.444;9.902;2022-12-18T02:49:03;20.02;;;11.65;;
3997;SDS011;61314;53.444;9.902;2022-12-18T02:51:35;20.15;;;11.48;;
3997;SDS011;61314;53.444;9.902;2022-12-18T02:54:09;22.55;;;12.40;;
3997;SDS011;61314;53.444;9.902;2022-12-18T02:56:55;21.42;;;11.80;;
3997;SDS011;61314;53.444;9.902;2022-12-18T02:59:28;18.23;;;11.25;;
3997;SDS011;61314;53.444;9.902;2022-12-18T03:01:58;16.65;;;9.88;;
3997;SDS011;61314;53.444;9.902;2022-12-18T03:04:27;15.88;;;10.70;;
3997;SDS011;61314;53.444;9.902;2022-12-18T03:06:58;18.50;;;11.05;;
3997;SDS011;61314;53.444;9.902;2022-12-18T03:09:31;15.27;;;9.43;;
3997;SDS011;61314;53.444;9.902;2022-12-18T03:15:08;21.23;;;11.18;;
3997;SDS011;61314;53.444;9.902;2022-12-18T03:17:44;23.85;;;10.50;;
3997;SDS011;61314;53.444;9.902;2022-12-18T03:20:14;19.45;;;11.63;;
3997;SDS011;61314;53.444;9.902;2022-12-18T03:22:42;20.10;;;10.02;;
3997;SDS011;61314;53.444;9.902;2022-12-18T03:25:11;15.75;;;9.65;;
3997;SDS011;61314;53.444;9.902;2022-12-18T03:27:43;20.67;;;10.25;;
3997;SDS011;61314;53.444;9.902;2022-12-18T03:30:13;15.90;;;9.75;;
3997;SDS011;61314;53.444;9.902;2022-12-18T03:32:42;18.55;;;10.02;;
3997;SDS011;61314;53.444;9.902;2022-12-18T03:35:11;22.10;;;9.82;;
3997;SDS011;61314;53.444;9.902;2022-12-18T03:37:39;21.63;;;9.70;;
3997;SDS011;61314;53.444;9.902;2022-12-18T03:40:06;16.15;;;10.23;;
3997;SDS011;61314;53.444;9.902;2022-12-18T03:42:42;21.27;;;9.63;;
3997;SDS011;61314;53.444;9.902;2022-12-18T03:45:27;16.10;;;8.60;;
3997;SDS011;61314;53.444;9.902;2022-12-18T03:51:08;16.50;;;9.60;;
3997;SDS011;61314;53.444;9.902;2022-12-18T03:53:41;17.92;;;9.55;;
3997;SDS011;61314;53.444;9.902;2022-12-18T03:56:11;14.05;;;9.07;;
3997;SDS011;61314;53.444;9.902;2022-12-18T03:58:40;18.27;;;9.80;;
3997;SDS011;61314;53.444;9.902;2022-12-18T04:01:09;17.73;;;10.13;;
3997;SDS011;61314;53.444;9.902;2022-12-18T04:03:37;19.55;;;10.68;;
3997;SDS011;61314;53.444;9.902;2022-12-18T04:06:06;18.98;;;9.65;;
3997;SDS011;61314;53.444;9.902;2022-12-18T04:08:33;19.45;;;10.60;;
3997;SDS011;61314;53.444;9.902;2022-12-18T04:11:01;22.27;;;10.30;;
3997;SDS011;61314;53.444;9.902;2022-12-18T04:13:34;17.67;;;10.55;;
3997;SDS011;61314;53.444;9.902;2022-12-18T04:16:02;22.15;;;10.32;;
3997;SDS011;61314;53.444;9.902;2022-12-18T04:18:30;20.48;;;11.02;;
3997;SDS011;61314;53.444;9.902;2022-12-18T04:20:57;17.73;;;10.95;;
3997;SDS011;61314;53.444;9.902;2022-12-18T04:23:24;17.50;;;9.77;;
3997;SDS011;61314;53.444;9.902;2022-12-18T04:25:51;22.92;;;10.85;;
3997;SDS011;61314;53.444;9.902;2022-12-18T04:28:18;22.35;;;10.10;;
3997;SDS011;61314;53.444;9.902;2022-12-18T04:30:46;14.43;;;9.25;;
3997;SDS011;61314;53.444;9.902;2022-12-18T04:33:14;17.02;;;9.75;;
3997;SDS011;61314;53.444;9.902;2022-12-18T04:35:44;25.73;;;11.45;;
3997;SDS011;61314;53.444;9.902;2022-12-18T04:38:11;22.83;;;11.18;;
3997;SDS011;61314;53.444;9.902;2022-12-18T04:40:38;21.88;;;10.65;;
3997;SDS011;61314;53.444;9.902;2022-12-18T04:43:06;18.42;;;9.88;;
3997;SDS011;61314;53.444;9.902;2022-12-18T04:45:33;18.17;;;9.90;;
3997;SDS011;61314;53.444;9.902;2022-12-18T04:48:01;18.50;;;10.90;;
3997;SDS011;61314;53.444;9.902;2022-12-18T04:50:28;21.38;;;9.70;;
3997;SDS011;61314;53.444;9.902;2022-12-18T04:52:55;18.63;;;10.95;;
3997;SDS011;61314;53.444;9.902;2022-12-18T04:55:23;21.23;;;12.00;;
3997;SDS011;61314;53.444;9.902;2022-12-18T04:57:52;16.92;;;10.90;;
3997;SDS011;61314;53.444;9.902;2022-12-18T05:00:20;20.63;;;10.52;;
3997;SDS011;61314;53.444;9.902;2022-12-18T05:02:47;18.27;;;10.75;;
3997;SDS011;61314;53.444;9.902;2022-12-18T05:05:14;19.00;;;10.07;;
3997;SDS011;61314;53.444;9.902;2022-12-18T05:07:41;22.13;;;12.23;;
3997;SDS011;61314;53.444;9.902;2022-12-18T05:10:08;15.05;;;11.43;;
3997;SDS011;61314;53.444;9.902;2022-12-18T05:12:35;23.63;;;11.05;;
3997;SDS011;61314;53.444;9.902;2022-12-18T05:15:22;15.43;;;10.02;;
3997;SDS011;61314;53.444;9.902;2022-12-18T05:17:48;21.77;;;11.30;;
3997;SDS011;61314;53.444;9.902;2022-12-18T05:20:15;23.67;;;10.45;;
3997;SDS011;61314;53.444;9.902;2022-12-18T05:22:42;16.42;;;10.48;;
3997;SDS011;61314;53.444;9.902;2022-12-18T05:25:09;18.90;;;10.70;;
3997;SDS011;61314;53.444;9.902;2022-12-18T05:27:36;18.05;;;10.70;;
3997;SDS011;61314;53.444;9.902;2022-12-18T05:30:03;20.20;;;11.65;;
3997;SDS011;61314;53.444;9.902;2022-12-18T05:32:30;22.40;;;12.18;;
3997;SDS011;61314;53.444;9.902;2022-12-18T05:34:57;20.70;;;10.98;;
3997;SDS011;61314;53.444;9.902;2022-12-18T05:37:24;22.40;;;10.85;;
3997;SDS011;61314;53.444;9.902;2022-12-18T05:39:51;20.17;;;11.48;;
3997;SDS011;61314;53.444;9.902;2022-12-18T05:42:18;23.60;;;12.00;;
3997;SDS011;61314;53.444;9.902;2022-12-18T05:44:45;21.20;;;10.80;;
3997;SDS011;61314;53.444;9.902;2022-12-18T05:47:12;18.52;;;9.80;;
3997;SDS011;61314;53.444;9.902;2022-12-18T05:49:39;27.88;;;11.90;;
3997;SDS011;61314;53.444;9.902;2022-12-18T05:52:07;20.02;;;10.95;;
3997;SDS011;61314;53.444;9.902;2022-12-18T05:54:34;20.58;;;9.88;;
3997;SDS011;61314;53.444;9.902;2022-12-18T05:57:02;26.65;;;11.25;;
3997;SDS011;61314;53.444;9.902;2022-12-18T05:59:29;23.98;;;10.80;;
3997;SDS011;61314;53.444;9.902;2022-12-18T06:01:56;24.58;;;11.02;;
3997;SDS011;61314;53.444;9.902;2022-12-18T06:04:23;18.75;;;10.55;;
3997;SDS011;61314;53.444;9.902;2022-12-18T06:06:50;23.98;;;12.75;;
3997;SDS011;61314;53.444;9.902;2022-12-18T06:09:17;18.63;;;10.80;;
3997;SDS011;61314;53.444;9.902;2022-12-18T06:11:44;18.33;;;10.90;;
3997;SDS011;61314;53.444;9.902;2022-12-18T06:14:10;16.30;;;10.25;;
3997;SDS011;61314;53.444;9.902;2022-12-18T06:16:38;19.25;;;10.07;;
3997;SDS011;61314;53.444;9.902;2022-12-18T06:19:05;26.90;;;12.10;;
3997;SDS011;61314;53.444;9.902;2022-12-18T06:21:32;20.63;;;11.73;;
3997;SDS011;61314;53.444;9.902;2022-12-18T06:24:00;16.35;;;10.40;;
3997;SDS011;61314;53.444;9.902;2022-12-18T06:26:27;25.30;;;10.32;;
3997;SDS011;61314;53.444;9.902;2022-12-18T06:28:54;19.52;;;11.20;;
3997;SDS011;61314;53.444;9.902;2022-12-18T06:31:21;17.25;;;10.85;;
3997;SDS011;61314;53.444;9.902;2022-12-18T06:33:48;20.65;;;11.98;;
3997;SDS011;61314;53.444;9.902;2022-12-18T06:36:15;19.45;;;11.15;;
3997;SDS011;61314;53.444;9.902;2022-12-18T06:38:43;14.52;;;10.65;;
3997;SDS011;61314;53.444;9.902;2022-12-18T06:41:12;21.77;;;10.43;;
3997;SDS011;61314;53.444;9.902;2022-12-18T06:43:39;19.90;;;10.80;;
3997;SDS011;61314;53.444;9.902;2022-12-18T06:46:06;22.20;;;11.18;;
3997;SDS011;61314;53.444;9.902;2022-12-18T06:48:34;22.08;;;11.30;;
3997;SDS011;61314;53.444;9.902;2022-12-18T06:51:01;29.23;;;10.60;;
3997;SDS011;61314;53.444;9.902;2022-12-18T06:53:28;21.38;;;11.20;;
3997;SDS011;61314;53.444;9.902;2022-12-18T06:56:02;17.80;;;11.38;;
3997;SDS011;61314;53.444;9.902;2022-12-18T06:58:35;17.67;;;10.13;;
3997;SDS011;61314;53.444;9.902;2022-12-18T07:01:02;22.40;;;11.70;;
3997;SDS011;61314;53.444;9.902;2022-12-18T07:03:31;24.80;;;10.65;;
3997;SDS011;61314;53.444;9.902;2022-12-18T07:05:58;29.15;;;11.35;;
3997;SDS011;61314;53.444;9.902;2022-12-18T07:08:25;18.65;;;9.95;;
3997;SDS011;61314;53.444;9.902;2022-12-18T07:10:51;19.75;;;10.40;;
3997;SDS011;61314;53.444;9.902;2022-12-18T07:13:21;27.05;;;11.23;;
3997;SDS011;61314;53.444;9.902;2022-12-18T07:15:48;19.98;;;11.00;;
3997;SDS011;61314;53.444;9.902;2022-12-18T07:18:15;22.70;;;10.68;;
3997;SDS011;61314;53.444;9.902;2022-12-18T07:20:42;16.30;;;9.73;;
3997;SDS011;61314;53.444;9.902;2022-12-18T07:23:08;18.25;;;10.32;;
3997;SDS011;61314;53.444;9.902;2022-12-18T07:25:36;20.83;;;10.05;;
3997;SDS011;61314;53.444;9.902;2022-12-18T07:28:03;21.58;;;11.68;;
3997;SDS011;61314;53.444;9.902;2022-12-18T07:30:30;23.85;;;10.10;;
3997;SDS011;61314;53.444;9.902;2022-12-18T07:32:57;25.00;;;10.85;;
3997;SDS011;61314;53.444;9.902;2022-12-18T07:35:23;16.58;;;9.85;;
3997;SDS011;61314;53.444;9.902;2022-12-18T07:37:50;22.70;;;11.45;;
3997;SDS011;61314;53.444;9.902;2022-12-18T07:40:17;21.90;;;11.70;;
3997;SDS011;61314;53.444;9.902;2022-12-18T07:42:44;19.38;;;10.40;;
3997;SDS011;61314;53.444;9.902;2022-12-18T07:45:10;19.40;;;10.43;;
3997;SDS011;61314;53.444;9.902;2022-12-18T07:47:37;21.90;;;11.35;;
3997;SDS011;61314;53.444;9.902;2022-12-18T07:50:04;21.45;;;11.90;;
3997;SDS011;61314;53.444;9.902;2022-12-18T07:52:32;19.58;;;12.00;;
3997;SDS011;61314;53.444;9.902;2022-12-18T07:54:59;17.10;;;10.50;;
3997;SDS011;61314;53.444;9.902;2022-12-18T07:57:25;17.00;;;11.00;;
3997;SDS011;61314;53.444;9.902;2022-12-18T08:00:12;20.40;;;10.38;;
3997;SDS011;61314;53.444;9.902;2022-12-18T08:02:39;16.08;;;9.10;;
3997;SDS011;61314;53.444;9.902;2022-12-18T08:05:07;22.77;;;10.95;;
3997;SDS011;61314;53.444;9.902;2022-12-18T08:07:34;19.65;;;10.88;;
3997;SDS011;61314;53.444;9.902;2022-12-18T08:10:00;20.05;;;11.02;;
3997;SDS011;61314;53.444;9.902;2022-12-18T08:12:27;16.40;;;9.85;;
3997;SDS011;61314;53.444;9.902;2022-12-18T08:14:53;20.15;;;10.32;;
3997;SDS011;61314;53.444;9.902;2022-12-18T08:17:20;20.25;;;11.10;;
3997;SDS011;61314;53.444;9.902;2022-12-18T08:19:47;18.27;;;10.07;;
3997;SDS011;61314;53.444;9.902;2022-12-18T08:22:13;25.92;;;9.90;;
3997;SDS011;61314;53.444;9.902;2022-12-18T08:24:40;15.68;;;10.27;;
3997;SDS011;61314;53.444;9.902;2022-12-18T08:27:06;16.70;;;10.35;;
3997;SDS011;61314;53.444;9.902;2022-12-18T08:29:53;19.27;;;10.68;;
3997;SDS011;61314;53.444;9.902;2022-12-18T08:32:19;22.08;;;10.68;;
3997;SDS011;61314;53.444;9.902;2022-12-18T08:34:46;17.10;;;10.40;;
3997;SDS011;61314;53.444;9.902;2022-12-18T08:37:12;24.38;;;10.30;;
3997;SDS011;61314;53.444;9.902;2022-12-18T08:39:39;15.65;;;10.32;;
3997;SDS011;61314;53.444;9.902;2022-12-18T08:42:06;18.38;;;10.75;;
3997;SDS011;61314;53.444;9.902;2022-12-18T08:44:51;18.40;;;9.27;;
3997;SDS011;61314;53.444;9.902;2022-12-18T08:47:17;16.45;;;10.30;;
3997;SDS011;61314;53.444;9.902;2022-12-18T08:49:44;19.25;;;10.43;;
3997;SDS011;61314;53.444;9.902;2022-12-18T08:52:13;18.75;;;10.27;;
3997;SDS011;61314;53.444;9.902;2022-12-18T08:54:40;19.73;;;10.25;;
3997;SDS011;61314;53.444;9.902;2022-12-18T08:57:06;16.80;;;10.02;;
3997;SDS011;61314;53.444;9.902;2022-12-18T08:59:33;22.27;;;10.40;;
3997;SDS011;61314;53.444;9.902;2022-12-18T09:02:00;15.18;;;8.43;;
3997;SDS011;61314;53.444;9.902;2022-12-18T09:04:27;23.10;;;10.43;;
3997;SDS011;61314;53.444;9.902;2022-12-18T09:06:53;18.35;;;11.05;;
3997;SDS011;61314;53.444;9.902;2022-12-18T09:09:20;18.83;;;10.30;;
3997;SDS011;61314;53.444;9.902;2022-12-18T09:11:50;16.70;;;9.38;;
3997;SDS011;61314;53.444;9.902;2022-12-18T09:14:16;20.95;;;9.52;;
3997;SDS011;61314;53.444;9.902;2022-12-18T09:16:43;21.35;;;9.82;;
3997;SDS011;61314;53.444;9.902;2022-12-18T09:19:09;15.43;;;9.95;;
3997;SDS011;61314;53.444;9.902;2022-12-18T09:21:36;17.92;;;10.05;;
3997;SDS011;61314;53.444;9.902;2022-12-18T09:24:06;26.70;;;10.40;;
3997;SDS011;61314;53.444;9.902;2022-12-18T09:26:37;25.48;;;10.60;;
3997;SDS011;61314;53.444;9.902;2022-12-18T09:29:05;14.93;;;10.02;;
3997;SDS011;61314;53.444;9.902;2022-12-18T09:31:36;18.58;;;10.57;;
3997;SDS011;61314;53.444;9.902;2022-12-18T09:34:05;17.15;;;9.90;;
3997;SDS011;61314;53.444;9.902;2022-12-18T09:36:32;20.95;;;9.40;;
3997;SDS011;61314;53.444;9.902;2022-12-18T09:38:58;15.85;;;9.50;;
3997;SDS011;61314;53.444;9.902;2022-12-18T09:44:21;13.65;;;10.05;;
3997;SDS011;61314;53.444;9.902;2022-12-18T09:46:52;17.77;;;8.68;;
3997;SDS011;61314;53.444;9.902;2022-12-18T09:49:25;12.32;;;8.57;;
3997;SDS011;61314;53.444;9.902;2022-12-18T09:51:57;28.55;;;11.07;;
3997;SDS011;61314;53.444;9.902;2022-12-18T09:54:31;33.97;;;16.05;;
3997;SDS011;61314;53.444;9.902;2022-12-18T09:57:02;35.05;;;16.58;;
3997;SDS011;61314;53.444;9.902;2022-12-18T09:59:37;21.42;;;15.20;;
3997;SDS011;61314;53.444;9.902;2022-12-18T10:02:18;15.20;;;10.30;;
3997;SDS011;61314;53.444;9.902;2022-12-18T10:04:50;18.50;;;9.65;;
3997;SDS011;61314;53.444;9.902;2022-12-18T10:07:23;17.40;;;9.93;;
3997;SDS011;61314;53.444;9.902;2022-12-18T10:09:55;26.17;;;14.20;;
3997;SDS011;61314;53.444;9.902;2022-12-18T10:15:15;18.33;;;10.50;;
3997;SDS011;61314;53.444;9.902;2022-12-18T10:20:30;23.00;;;10.98;;
3997;SDS011;61314;53.444;9.902;2022-12-18T10:28:31;16.77;;;10.63;;
3997;SDS011;61314;53.444;9.902;2022-12-18T10:30:58;21.00;;;12.27;;
3997;SDS011;61314;53.444;9.902;2022-12-18T10:33:28;19.75;;;13.45;;
3997;SDS011;61314;53.444;9.902;2022-12-18T10:35:55;17.38;;;12.95;;
3997;SDS011;61314;53.444;9.902;2022-12-18T10:38:24;16.33;;;9.63;;
3997;SDS011;61314;53.444;9.902;2022-12-18T10:45:59;33.20;;;14.40;;
3997;SDS011;61314;53.444;9.902;2022-12-18T10:48:27;27.42;;;15.32;;
3997;SDS011;61314;53.444;9.902;2022-12-18T10:50:54;25.98;;;14.00;;
3997;SDS011;61314;53.444;9.902;2022-12-18T10:53:39;19.33;;;10.60;;
3997;SDS011;61314;53.444;9.902;2022-12-18T10:56:07;13.25;;;8.88;;
3997;SDS011;61314;53.444;9.902;2022-12-18T10:58:35;12.43;;;9.00;;
3997;SDS011;61314;53.444;9.902;2022-12-18T11:01:12;12.77;;;8.90;;
3997;SDS011;61314;53.444;9.902;2022-12-18T11:03:43;15.82;;;10.57;;
3997;SDS011;61314;53.444;9.902;2022-12-18T11:08:38;19.75;;;12.73;;
3997;SDS011;61314;53.444;9.902;2022-12-18T11:11:16;17.35;;;9.73;;
3997;SDS011;61314;53.444;9.902;2022-12-18T11:13:51;17.42;;;9.40;;
3997;SDS011;61314;53.444;9.902;2022-12-18T11:16:19;15.10;;;9.60;;
3997;SDS011;61314;53.444;9.902;2022-12-18T11:18:47;16.02;;;8.68;;
3997;SDS011;61314;53.444;9.902;2022-12-18T11:21:14;15.27;;;8.70;;
3997;SDS011;61314;53.444;9.902;2022-12-18T11:23:46;17.40;;;8.80;;
3997;SDS011;61314;53.444;9.902;2022-12-18T11:26:13;13.05;;;8.48;;
3997;SDS011;61314;53.444;9.902;2022-12-18T11:28:42;15.05;;;8.35;;
3997;SDS011;61314;53.444;9.902;2022-12-18T11:31:24;14.45;;;8.25;;
3997;SDS011;61314;53.444;9.902;2022-12-18T11:33:53;11.73;;;8.30;;
3997;SDS011;61314;53.444;9.902;2022-12-18T11:36:45;12.20;;;8.23;;
3997;SDS011;61314;53.444;9.902;2022-12-18T11:39:31;12.43;;;8.40;;
3997;SDS011;61314;53.444;9.902;2022-12-18T11:42:04;18.40;;;8.27;;
3997;SDS011;61314;53.444;9.902;2022-12-18T11:48:05;14.15;;;9.20;;
3997;SDS011;61314;53.444;9.902;2022-12-18T11:50:13;15.90;;;8.75;;
3997;SDS011;61314;53.444;9.902;2022-12-18T11:52:41;16.40;;;8.32;;
3997;SDS011;61314;53.444;9.902;2022-12-18T11:55:54;12.20;;;8.50;;
3997;SDS011;61314;53.444;9.902;2022-12-18T12:00:32;17.95;;;8.57;;
3997;SDS011;61314;53.444;9.902;2022-12-18T12:05:41;11.80;;;7.28;;
3997;SDS011;61314;53.444;9.902;2022-12-18T12:08:23;13.43;;;7.97;;
3997;SDS011;61314;53.444;9.902;2022-12-18T13:37:58;22.98;;;10.60;;
3997;SDS011;61314;53.444;9.902;2022-12-18T13:43:24;18.52;;;11.05;;
3997;SDS011;61314;53.444;9.902;2022-12-18T13:48:34;19.50;;;10.45;;
3997;SDS011;61314;53.444;9.902;2022-12-18T13:51:03;21.23;;;11.30;;
3997;SDS011;61314;53.444;9.902;2022-12-18T13:53:44;17.65;;;11.82;;
3997;SDS011;61314;53.444;9.902;2022-12-18T13:56:15;16.80;;;9.65;;
3997;SDS011;61314;53.444;9.902;2022-12-18T13:58:46;19.02;;;11.80;;
3997;SDS011;61314;53.444;9.902;2022-12-18T14:01:21;19.77;;;12.23;;
3997;SDS011;61314;53.444;9.902;2022-12-18T14:03:48;29.02;;;12.30;;
3997;SDS011;61314;53.444;9.902;2022-12-18T14:06:18;25.35;;;12.25;;
3997;SDS011;61314;53.444;9.902;2022-12-18T14:08:45;29.08;;;13.07;;
3997;SDS011;61314;53.444;9.902;2022-12-18T14:11:20;28.67;;;14.20;;
3997;SDS011;61314;53.444;9.902;2022-12-18T14:13:51;26.60;;;14.55;;
3997;SDS011;61314;53.444;9.902;2022-12-18T14:16:18;27.45;;;13.95;;
3997;SDS011;61314;53.444;9.902;2022-12-18T14:18:52;24.63;;;13.38;;
3997;SDS011;61314;53.444;9.902;2022-12-18T14:21:40;25.02;;;14.48;;
3997;SDS011;61314;53.444;9.902;2022-12-18T14:24:13;30.42;;;13.88;;
3997;SDS011;61314;53.444;9.902;2022-12-18T14:26:45;30.27;;;14.73;;
3997;SDS011;61314;53.444;9.902;2022-12-18T14:29:26;38.88;;;17.63;;
3997;SDS011;61314;53.444;9.902;2022-12-18T14:32:07;35.78;;;16.02;;
3997;SDS011;61314;53.444;9.902;2022-12-18T14:34:43;33.30;;;16.90;;
3997;SDS011;61314;53.444;9.902;2022-12-18T14:37:10;28.60;;;16.27;;
3997;SDS011;61314;53.444;9.902;2022-12-18T14:39:38;34.95;;;16.27;;
3997;SDS011;61314;53.444;9.902;2022-12-18T14:42:05;29.48;;;16.20;;
3997;SDS011;61314;53.444;9.902;2022-12-18T14:44:32;40.35;;;18.85;;
3997;SDS011;61314;53.444;9.902;2022-12-18T14:47:16;34.38;;;15.70;;
3997;SDS011;61314;53.444;9.902;2022-12-18T14:49:43;34.05;;;17.33;;
3997;SDS011;61314;53.444;9.902;2022-12-18T14:52:19;32.53;;;15.52;;
3997;SDS011;61314;53.444;9.902;2022-12-18T14:54:48;42.85;;;19.35;;
3997;SDS011;61314;53.444;9.902;2022-12-18T14:57:25;41.63;;;19.27;;
3997;SDS011;61314;53.444;9.902;2022-12-18T14:59:52;41.90;;;20.48;;
3997;SDS011;61314;53.444;9.902;2022-12-18T15:02:21;47.92;;;20.83;;
3997;SDS011;61314;53.444;9.902;2022-12-18T15:05:32;32.92;;;17.75;;
3997;SDS011;61314;53.444;9.902;2022-12-18T15:07:40;36.90;;;17.80;;
3997;SDS011;61314;53.444;9.902;2022-12-18T15:10:15;47.03;;;20.00;;
3997;SDS011;61314;53.444;9.902;2022-12-18T15:12:44;45.25;;;18.45;;
3997;SDS011;61314;53.444;9.902;2022-12-18T15:15:43;41.83;;;19.58;;
3997;SDS011;61314;53.444;9.902;2022-12-18T15:23:21;50.75;;;20.58;;
3997;SDS011;61314;53.444;9.902;2022-12-18T15:25:54;46.17;;;19.60;;
3997;SDS011;61314;53.444;9.902;2022-12-18T15:28:23;53.95;;;20.45;;
3997;SDS011;61314;53.444;9.902;2022-12-18T15:30:58;50.47;;;22.13;;
3997;SDS011;61314;53.444;9.902;2022-12-18T15:33:26;44.08;;;21.67;;
3997;SDS011;61314;53.444;9.902;2022-12-18T15:35:59;53.20;;;23.58;;
3997;SDS011;61314;53.444;9.902;2022-12-18T15:38:27;41.17;;;21.15;;
3997;SDS011;61314;53.444;9.902;2022-12-18T15:40:54;45.58;;;21.20;;
3997;SDS011;61314;53.444;9.902;2022-12-18T15:43:22;42.88;;;19.92;;
3997;SDS011;61314;53.444;9.902;2022-12-18T15:46:03;40.47;;;21.65;;
3997;SDS011;61314;53.444;9.902;2022-12-18T15:48:31;49.33;;;22.92;;
3997;SDS011;61314;53.444;9.902;2022-12-18T15:50:59;50.92;;;22.65;;
3997;SDS011;61314;53.444;9.902;2022-12-18T15:53:30;46.90;;;20.65;;
3997;SDS011;61314;53.444;9.902;2022-12-18T15:55:59;44.35;;;21.23;;
3997;SDS011;61314;53.444;9.902;2022-12-18T15:58:45;54.22;;;21.92;;
3997;SDS011;61314;53.444;9.902;2022-12-18T16:01:25;54.63;;;25.55;;
3997;SDS011;61314;53.444;9.902;2022-12-18T16:03:52;43.97;;;22.00;;
3997;SDS011;61314;53.444;9.902;2022-12-18T16:06:20;57.35;;;23.38;;
3997;SDS011;61314;53.444;9.902;2022-12-18T16:08:48;47.20;;;21.60;;
3997;SDS011;61314;53.444;9.902;2022-12-18T16:11:22;51.72;;;22.65;;
3997;SDS011;61314;53.444;9.902;2022-12-18T16:16:33;46.47;;;22.25;;
3997;SDS011;61314;53.444;9.902;2022-12-18T16:19:00;46.88;;;23.45;;
3997;SDS011;61314;53.444;9.902;2022-12-18T16:21:28;50.38;;;23.83;;
3997;SDS011;61314;53.444;9.902;2022-12-18T16:23:59;52.92;;;23.00;;
3997;SDS011;61314;53.444;9.902;2022-12-18T16:26:27;44.83;;;22.63;;
3997;SDS011;61314;53.444;9.902;2022-12-18T16:28:54;60.88;;;23.17;;
3997;SDS011;61314;53.444;9.902;2022-12-18T16:31:21;61.00;;;24.92;;
3997;SDS011;61314;53.444;9.902;2022-12-18T16:33:48;59.13;;;23.55;;
3997;SDS011;61314;53.444;9.902;2022-12-18T16:36:15;48.28;;;23.35;;
3997;SDS011;61314;53.444;9.902;2022-12-18T16:38:42;42.53;;;22.52;;
3997;SDS011;61314;53.444;9.902;2022-12-18T16:41:16;48.03;;;23.27;;
3997;SDS011;61314;53.444;9.902;2022-12-18T16:43:59;45.72;;;22.15;;
3997;SDS011;61314;53.444;9.902;2022-12-18T16:46:27;54.65;;;23.85;;
3997;SDS011;61314;53.444;9.902;2022-12-18T16:48:54;57.88;;;23.08;;
3997;SDS011;61314;53.444;9.902;2022-12-18T16:51:23;56.10;;;23.95;;
3997;SDS011;61314;53.444;9.902;2022-12-18T16:53:50;50.55;;;21.83;;
3997;SDS011;61314;53.444;9.902;2022-12-18T16:56:17;54.03;;;23.10;;
3997;SDS011;61314;53.444;9.902;2022-12-18T16:58:49;50.30;;;22.80;;
3997;SDS011;61314;53.444;9.902;2022-12-18T17:01:16;48.53;;;22.23;;
3997;SDS011;61314;53.444;9.902;2022-12-18T17:03:43;55.70;;;22.73;;
3997;SDS011;61314;53.444;9.902;2022-12-18T17:06:13;51.38;;;22.38;;
3997;SDS011;61314;53.444;9.902;2022-12-18T17:08:42;42.40;;;20.33;;
3997;SDS011;61314;53.444;9.902;2022-12-18T17:11:09;51.33;;;23.92;;
3997;SDS011;61314;53.444;9.902;2022-12-18T17:13:35;56.63;;;22.40;;
3997;SDS011;61314;53.444;9.902;2022-12-18T17:16:06;43.97;;;23.00;;